sensor_id;sensor_type;location;lat;lon;timestamp;P1;durP1;ratioP1;P2;durP2;ratioP2
40588;SDS011;26297;49.450;6.640;2023-04-24T00:00:40;0.47;;;0.20;;
40588;SDS011;26297;49.450;6.640;2023-04-24T00:04:20;0.10;;;0.10;;
40588;SDS011;26297;49.450;6.640;2023-04-24T00:07:39;0.85;;;0.10;;
40588;SDS011;26297;49.450;6.640;2023-04-24T00:11:04;0.13;;;0.10;;
40588;SDS011;26297;49.450;6.640;2023-04-24T00:14:21;0.05;;;0.05;;
40588;SDS011;26297;49.450;6.640;2023-04-24T00:17:39;0.20;;;0.10;;
40588;SDS011;26297;49.450;6.640;2023-04-24T00:20:54;0.03;;;0.03;;
40588;SDS011;26297;49.450;6.640;2023-04-24T00:24:32;0.43;;;0.15;;
40588;SDS011;26297;49.450;6.640;2023-04-24T00:27:41;0.08;;;0.08;;
40588;SDS011;26297;49.450;6.640;2023-04-24T00:30:45;0.68;;;0.10;;
40588;SDS011;26297;49.450;6.640;2023-04-24T00:33:55;0.28;;;0.20;;
40588;SDS011;26297;49.450;6.640;2023-04-24T00:37:05;2.95;;;0.30;;
40588;SDS011;26297;49.450;6.640;2023-04-24T00:40:11;0.10;;;0.10;;
40588;SDS011;26297;49.450;6.640;2023-04-24T00:43:21;0.52;;;0.20;;
40588;SDS011;26297;49.450;6.640;2023-04-24T00:46:51;0.28;;;0.28;;
40588;SDS011;26297;49.450;6.640;2023-04-24T00:49:57;0.50;;;0.40;;
40588;SDS011;26297;49.450;6.640;2023-04-24T00:53:07;0.40;;;0.40;;
40588;SDS011;26297;49.450;6.640;2023-04-24T00:56:33;0.40;;;0.40;;
40588;SDS011;26297;49.450;6.640;2023-04-24T00:59:54;0.60;;;0.60;;
40588;SDS011;26297;49.450;6.640;2023-04-24T01:03:16;1.80;;;0.77;;
40588;SDS011;26297;49.450;6.640;2023-04-24T01:06:27;0.50;;;0.50;;
40588;SDS011;26297;49.450;6.640;2023-04-24T01:09:33;0.93;;;0.68;;
40588;SDS011;26297;49.450;6.640;2023-04-24T01:12:38;0.70;;;0.70;;
40588;SDS011;26297;49.450;6.640;2023-04-24T01:15:42;1.08;;;0.70;;
40588;SDS011;26297;49.450;6.640;2023-04-24T01:19:07;1.83;;;0.77;;
40588;SDS011;26297;49.450;6.640;2023-04-24T01:22:23;1.52;;;0.80;;
40588;SDS011;26297;49.450;6.640;2023-04-24T01:25:32;0.70;;;0.70;;
40588;SDS011;26297;49.450;6.640;2023-04-24T01:28:43;1.02;;;0.82;;
40588;SDS011;26297;49.450;6.640;2023-04-24T01:32:03;0.90;;;0.90;;
40588;SDS011;26297;49.450;6.640;2023-04-24T01:35:13;0.90;;;0.90;;
40588;SDS011;26297;49.450;6.640;2023-04-24T01:38:25;1.30;;;0.73;;
40588;SDS011;26297;49.450;6.640;2023-04-24T01:41:56;0.85;;;0.80;;
40588;SDS011;26297;49.450;6.640;2023-04-24T01:45:22;0.95;;;0.90;;
40588;SDS011;26297;49.450;6.640;2023-04-24T01:48:36;1.30;;;0.80;;
40588;SDS011;26297;49.450;6.640;2023-04-24T01:51:52;2.05;;;0.90;;
40588;SDS011;26297;49.450;6.640;2023-04-24T01:55:04;2.08;;;1.05;;
40588;SDS011;26297;49.450;6.640;2023-04-24T01:58:10;0.98;;;0.95;;
40588;SDS011;26297;49.450;6.640;2023-04-24T02:01:23;3.00;;;0.95;;
40588;SDS011;26297;49.450;6.640;2023-04-24T02:04:29;2.65;;;1.13;;
40588;SDS011;26297;49.450;6.640;2023-04-24T02:08:02;1.05;;;1.02;;
40588;SDS011;26297;49.450;6.640;2023-04-24T02:11:11;4.35;;;1.02;;
40588;SDS011;26297;49.450;6.640;2023-04-24T02:14:25;1.02;;;1.00;;
40588;SDS011;26297;49.450;6.640;2023-04-24T02:17:31;1.33;;;1.23;;
40588;SDS011;26297;49.450;6.640;2023-04-24T02:20:40;2.22;;;1.38;;
40588;SDS011;26297;49.450;6.640;2023-04-24T02:23:54;1.55;;;1.30;;
40588;SDS011;26297;49.450;6.640;2023-04-24T02:27:11;2.05;;;1.17;;
40588;SDS011;26297;49.450;6.640;2023-04-24T02:30:23;1.42;;;1.23;;
40588;SDS011;26297;49.450;6.640;2023-04-24T02:33:32;2.45;;;1.00;;
40588;SDS011;26297;49.450;6.640;2023-04-24T02:36:45;1.50;;;1.40;;
40588;SDS011;26297;49.450;6.640;2023-04-24T02:39:53;3.10;;;1.42;;
40588;SDS011;26297;49.450;6.640;2023-04-24T02:43:12;1.40;;;1.10;;
40588;SDS011;26297;49.450;6.640;2023-04-24T02:46:27;3.67;;;1.20;;
40588;SDS011;26297;49.450;6.640;2023-04-24T02:49:48;1.55;;;1.20;;
40588;SDS011;26297;49.450;6.640;2023-04-24T02:53:04;2.10;;;1.10;;
40588;SDS011;26297;49.450;6.640;2023-04-24T02:56:10;1.45;;;1.35;;
40588;SDS011;26297;49.450;6.640;2023-04-24T03:02:37;1.67;;;1.58;;
40588;SDS011;26297;49.450;6.640;2023-04-24T03:05:55;1.90;;;1.30;;
40588;SDS011;26297;49.450;6.640;2023-04-24T03:09:05;1.45;;;1.35;;
40588;SDS011;26297;49.450;6.640;2023-04-24T03:12:11;2.30;;;1.50;;
40588;SDS011;26297;49.450;6.640;2023-04-24T03:15:20;1.30;;;1.20;;
40588;SDS011;26297;49.450;6.640;2023-04-24T03:18:39;2.28;;;2.00;;
40588;SDS011;26297;49.450;6.640;2023-04-24T03:22:12;2.15;;;1.77;;
40588;SDS011;26297;49.450;6.640;2023-04-24T03:25:21;1.67;;;1.58;;
40588;SDS011;26297;49.450;6.640;2023-04-24T03:28:31;1.63;;;1.52;;
40588;SDS011;26297;49.450;6.640;2023-04-24T03:31:50;1.65;;;1.48;;
40588;SDS011;26297;49.450;6.640;2023-04-24T03:35:14;2.67;;;1.50;;
40588;SDS011;26297;49.450;6.640;2023-04-24T03:38:31;2.88;;;1.70;;
40588;SDS011;26297;49.450;6.640;2023-04-24T03:41:51;2.10;;;1.50;;
40588;SDS011;26297;49.450;6.640;2023-04-24T03:45:51;2.13;;;1.92;;
40588;SDS011;26297;49.450;6.640;2023-04-24T03:49:13;2.88;;;1.75;;
40588;SDS011;26297;49.450;6.640;2023-04-24T03:52:27;2.33;;;2.13;;
40588;SDS011;26297;49.450;6.640;2023-04-24T03:55:33;2.67;;;2.15;;
40588;SDS011;26297;49.450;6.640;2023-04-24T03:59:04;3.25;;;2.08;;
40588;SDS011;26297;49.450;6.640;2023-04-24T04:02:23;2.13;;;1.92;;
40588;SDS011;26297;49.450;6.640;2023-04-24T04:05:52;2.25;;;2.05;;
40588;SDS011;26297;49.450;6.640;2023-04-24T04:09:16;2.72;;;2.15;;
40588;SDS011;26297;49.450;6.640;2023-04-24T04:12:41;2.53;;;2.00;;
40588;SDS011;26297;49.450;6.640;2023-04-24T04:16:02;3.33;;;2.00;;
40588;SDS011;26297;49.450;6.640;2023-04-24T04:19:26;2.08;;;1.88;;
40588;SDS011;26297;49.450;6.640;2023-04-24T04:22:37;2.25;;;2.05;;
40588;SDS011;26297;49.450;6.640;2023-04-24T04:25:54;2.55;;;2.13;;
40588;SDS011;26297;49.450;6.640;2023-04-24T04:29:08;2.50;;;2.30;;
40588;SDS011;26297;49.450;6.640;2023-04-24T04:32:18;4.72;;;2.13;;
40588;SDS011;26297;49.450;6.640;2023-04-24T04:35:53;4.63;;;2.35;;
40588;SDS011;26297;49.450;6.640;2023-04-24T04:39:08;2.38;;;2.17;;
40588;SDS011;26297;49.450;6.640;2023-04-24T04:42:23;1.98;;;1.60;;
40588;SDS011;26297;49.450;6.640;2023-04-24T04:45:39;3.70;;;2.05;;
40588;SDS011;26297;49.450;6.640;2023-04-24T04:48:46;3.47;;;2.17;;
40588;SDS011;26297;49.450;6.640;2023-04-24T04:51:58;3.38;;;2.15;;
40588;SDS011;26297;49.450;6.640;2023-04-24T04:55:01;2.85;;;2.05;;
40588;SDS011;26297;49.450;6.640;2023-04-24T04:58:05;2.10;;;1.90;;
40588;SDS011;26297;49.450;6.640;2023-04-24T05:01:23;1.80;;;1.70;;
40588;SDS011;26297;49.450;6.640;2023-04-24T05:04:29;2.33;;;2.10;;
40588;SDS011;26297;49.450;6.640;2023-04-24T05:07:44;2.65;;;1.67;;
40588;SDS011;26297;49.450;6.640;2023-04-24T05:10:55;1.92;;;1.70;;
40588;SDS011;26297;49.450;6.640;2023-04-24T05:14:03;2.53;;;2.33;;
40588;SDS011;26297;49.450;6.640;2023-04-24T05:17:51;2.05;;;1.85;;
40588;SDS011;26297;49.450;6.640;2023-04-24T05:21:24;2.08;;;1.88;;
40588;SDS011;26297;49.450;6.640;2023-04-24T07:03:40;2.70;;;2.08;;
40588;SDS011;26297;49.450;6.640;2023-04-24T10:21:53;5.63;;;3.10;;
40588;SDS011;26297;49.450;6.640;2023-04-24T10:29:17;4.43;;;2.75;;
40588;SDS011;26297;49.450;6.640;2023-04-24T10:38:26;4.77;;;3.43;;
40588;SDS011;26297;49.450;6.640;2023-04-24T10:42:46;5.15;;;3.13;;
40588;SDS011;26297;49.450;6.640;2023-04-24T13:11:12;3.70;;;3.20;;
40588;SDS011;26297;49.450;6.640;2023-04-24T13:14:15;2.78;;;1.92;;
40588;SDS011;26297;49.450;6.640;2023-04-24T13:17:19;3.05;;;2.53;;
40588;SDS011;26297;49.450;6.640;2023-04-24T13:20:23;4.82;;;3.08;;
40588;SDS011;26297;49.450;6.640;2023-04-24T13:23:26;4.10;;;2.42;;
40588;SDS011;26297;49.450;6.640;2023-04-24T13:26:34;4.63;;;3.35;;
40588;SDS011;26297;49.450;6.640;2023-04-24T13:29:37;2.63;;;2.42;;
40588;SDS011;26297;49.450;6.640;2023-04-24T13:32:41;2.95;;;2.20;;
40588;SDS011;26297;49.450;6.640;2023-04-24T13:35:45;2.60;;;2.15;;
40588;SDS011;26297;49.450;6.640;2023-04-24T13:38:59;3.22;;;2.88;;
40588;SDS011;26297;49.450;6.640;2023-04-24T13:42:02;3.70;;;2.60;;
40588;SDS011;26297;49.450;6.640;2023-04-24T13:45:06;2.78;;;2.38;;
40588;SDS011;26297;49.450;6.640;2023-04-24T13:48:11;4.25;;;3.03;;
40588;SDS011;26297;49.450;6.640;2023-04-24T13:51:17;3.90;;;2.30;;
40588;SDS011;26297;49.450;6.640;2023-04-24T13:54:21;3.88;;;2.90;;
40588;SDS011;26297;49.450;6.640;2023-04-24T13:57:28;2.53;;;1.98;;
40588;SDS011;26297;49.450;6.640;2023-04-24T14:00:34;3.78;;;2.15;;
40588;SDS011;26297;49.450;6.640;2023-04-24T14:03:38;2.15;;;1.80;;
40588;SDS011;26297;49.450;6.640;2023-04-24T14:06:41;1.88;;;1.67;;
40588;SDS011;26297;49.450;6.640;2023-04-24T14:09:49;1.60;;;1.50;;
40588;SDS011;26297;49.450;6.640;2023-04-24T14:12:52;3.58;;;2.50;;
40588;SDS011;26297;49.450;6.640;2023-04-24T14:15:56;3.17;;;2.70;;
40588;SDS011;26297;49.450;6.640;2023-04-24T14:18:59;4.32;;;2.88;;
40588;SDS011;26297;49.450;6.640;2023-04-24T14:22:03;2.50;;;2.30;;
40588;SDS011;26297;49.450;6.640;2023-04-24T14:25:07;2.65;;;2.10;;
40588;SDS011;26297;49.450;6.640;2023-04-24T14:28:14;2.42;;;1.73;;
40588;SDS011;26297;49.450;6.640;2023-04-24T14:31:18;1.45;;;1.30;;
40588;SDS011;26297;49.450;6.640;2023-04-24T14:34:21;1.95;;;1.70;;
40588;SDS011;26297;49.450;6.640;2023-04-24T14:37:25;2.45;;;1.40;;
40588;SDS011;26297;49.450;6.640;2023-04-24T14:40:29;3.92;;;2.55;;
40588;SDS011;26297;49.450;6.640;2023-04-24T14:43:35;3.15;;;2.22;;
40588;SDS011;26297;49.450;6.640;2023-04-24T14:46:42;2.42;;;2.13;;
40588;SDS011;26297;49.450;6.640;2023-04-24T14:49:47;2.15;;;1.70;;
40588;SDS011;26297;49.450;6.640;2023-04-24T14:52:51;2.13;;;1.63;;
40588;SDS011;26297;49.450;6.640;2023-04-24T14:55:55;3.53;;;2.10;;
40588;SDS011;26297;49.450;6.640;2023-04-24T14:58:58;5.20;;;2.38;;
40588;SDS011;26297;49.450;6.640;2023-04-24T15:02:02;3.53;;;1.90;;
40588;SDS011;26297;49.450;6.640;2023-04-24T15:05:09;2.88;;;1.85;;
40588;SDS011;26297;49.450;6.640;2023-04-24T15:08:12;1.05;;;1.00;;
40588;SDS011;26297;49.450;6.640;2023-04-24T15:11:16;3.78;;;2.33;;
40588;SDS011;26297;49.450;6.640;2023-04-24T15:14:22;2.10;;;1.90;;
40588;SDS011;26297;49.450;6.640;2023-04-24T15:17:35;4.07;;;2.33;;
40588;SDS011;26297;49.450;6.640;2023-04-24T15:20:38;3.22;;;2.22;;
40588;SDS011;26297;49.450;6.640;2023-04-24T15:23:42;2.58;;;1.70;;
40588;SDS011;26297;49.450;6.640;2023-04-24T15:26:45;3.88;;;2.67;;
40588;SDS011;26297;49.450;6.640;2023-04-24T15:29:49;2.17;;;1.75;;
40588;SDS011;26297;49.450;6.640;2023-04-24T15:32:53;3.88;;;2.10;;
40588;SDS011;26297;49.450;6.640;2023-04-24T15:35:56;4.30;;;2.45;;
40588;SDS011;26297;49.450;6.640;2023-04-24T15:39:00;2.95;;;2.08;;
40588;SDS011;26297;49.450;6.640;2023-04-24T15:42:11;2.13;;;1.60;;
40588;SDS011;26297;49.450;6.640;2023-04-24T15:45:17;1.20;;;1.10;;
40588;SDS011;26297;49.450;6.640;2023-04-24T15:48:21;0.75;;;0.70;;
40588;SDS011;26297;49.450;6.640;2023-04-24T15:51:27;0.63;;;0.63;;
40588;SDS011;26297;49.450;6.640;2023-04-24T15:54:31;0.77;;;0.70;;
40588;SDS011;26297;49.450;6.640;2023-04-24T15:57:34;0.88;;;0.88;;
40588;SDS011;26297;49.450;6.640;2023-04-24T16:00:38;2.17;;;1.10;;
40588;SDS011;26297;49.450;6.640;2023-04-24T16:03:42;1.20;;;1.08;;
40588;SDS011;26297;49.450;6.640;2023-04-24T16:06:46;1.77;;;1.15;;
40588;SDS011;26297;49.450;6.640;2023-04-24T16:09:50;1.52;;;1.42;;
40588;SDS011;26297;49.450;6.640;2023-04-24T16:12:53;1.35;;;1.13;;
40588;SDS011;26297;49.450;6.640;2023-04-24T16:15:57;1.92;;;1.00;;
40588;SDS011;26297;49.450;6.640;2023-04-24T16:19:00;1.58;;;1.10;;
40588;SDS011;26297;49.450;6.640;2023-04-24T16:22:04;1.38;;;1.27;;
40588;SDS011;26297;49.450;6.640;2023-04-24T16:25:07;1.42;;;1.33;;
40588;SDS011;26297;49.450;6.640;2023-04-24T16:28:11;1.35;;;1.02;;
40588;SDS011;26297;49.450;6.640;2023-04-24T16:31:15;2.38;;;1.15;;
40588;SDS011;26297;49.450;6.640;2023-04-24T16:34:22;9.32;;;3.58;;
40588;SDS011;26297;49.450;6.640;2023-04-24T16:37:27;5.70;;;2.60;;
40588;SDS011;26297;49.450;6.640;2023-04-24T16:40:31;2.35;;;1.58;;
40588;SDS011;26297;49.450;6.640;2023-04-24T16:43:35;1.77;;;1.55;;
40588;SDS011;26297;49.450;6.640;2023-04-24T16:46:42;1.50;;;1.40;;
40588;SDS011;26297;49.450;6.640;2023-04-24T16:49:54;1.80;;;1.70;;
40588;SDS011;26297;49.450;6.640;2023-04-24T16:53:09;3.47;;;2.20;;
40588;SDS011;26297;49.450;6.640;2023-04-24T16:56:24;3.33;;;2.33;;
40588;SDS011;26297;49.450;6.640;2023-04-24T16:59:27;2.30;;;2.10;;
40588;SDS011;26297;49.450;6.640;2023-04-24T17:02:38;2.47;;;2.28;;
40588;SDS011;26297;49.450;6.640;2023-04-24T17:05:42;4.65;;;2.60;;
40588;SDS011;26297;49.450;6.640;2023-04-24T17:08:46;3.47;;;1.92;;
40588;SDS011;26297;49.450;6.640;2023-04-24T17:11:50;2.58;;;2.00;;
40588;SDS011;26297;49.450;6.640;2023-04-24T17:14:54;3.08;;;1.90;;
40588;SDS011;26297;49.450;6.640;2023-04-24T17:18:01;4.93;;;2.65;;
40588;SDS011;26297;49.450;6.640;2023-04-24T17:21:28;2.58;;;1.88;;
40588;SDS011;26297;49.450;6.640;2023-04-24T17:24:35;4.07;;;2.15;;
40588;SDS011;26297;49.450;6.640;2023-04-24T17:27:41;2.38;;;2.03;;
40588;SDS011;26297;49.450;6.640;2023-04-24T17:30:49;2.00;;;1.80;;
40588;SDS011;26297;49.450;6.640;2023-04-24T17:33:53;1.70;;;1.60;;
40588;SDS011;26297;49.450;6.640;2023-04-24T17:37:01;2.30;;;1.77;;
40588;SDS011;26297;49.450;6.640;2023-04-24T17:40:07;1.63;;;1.50;;
40588;SDS011;26297;49.450;6.640;2023-04-24T17:43:12;1.58;;;1.30;;
40588;SDS011;26297;49.450;6.640;2023-04-24T17:46:19;1.95;;;1.80;;
40588;SDS011;26297;49.450;6.640;2023-04-24T17:49:40;2.53;;;1.92;;
40588;SDS011;26297;49.450;6.640;2023-04-24T17:52:52;2.33;;;2.08;;
40588;SDS011;26297;49.450;6.640;2023-04-24T17:56:06;5.57;;;1.73;;
40588;SDS011;26297;49.450;6.640;2023-04-24T17:59:10;2.70;;;1.88;;
40588;SDS011;26297;49.450;6.640;2023-04-24T19:11:19;1.27;;;1.08;;
40588;SDS011;26297;49.450;6.640;2023-04-24T19:15:37;1.48;;;1.33;;
40588;SDS011;26297;49.450;6.640;2023-04-24T19:19:36;1.33;;;1.10;;
40588;SDS011;26297;49.450;6.640;2023-04-24T19:25:38;1.50;;;1.40;;
40588;SDS011;26297;49.450;6.640;2023-04-24T19:28:56;1.85;;;1.38;;
40588;SDS011;26297;49.450;6.640;2023-04-24T19:46:37;1.90;;;1.37;;
40588;SDS011;26297;49.450;6.640;2023-04-24T19:49:49;1.50;;;1.40;;
40588;SDS011;26297;49.450;6.640;2023-04-24T19:53:19;2.30;;;1.48;;
40588;SDS011;26297;49.450;6.640;2023-04-24T19:56:26;1.50;;;1.33;;
40588;SDS011;26297;49.450;6.640;2023-04-24T20:11:35;2.70;;;1.38;;
40588;SDS011;26297;49.450;6.640;2023-04-24T20:20:29;2.00;;;1.57;;
40588;SDS011;26297;49.450;6.640;2023-04-24T20:23:58;1.65;;;1.55;;
40588;SDS011;26297;49.450;6.640;2023-04-24T20:27:10;1.15;;;1.05;;
40588;SDS011;26297;49.450;6.640;2023-04-24T21:33:40;2.60;;;2.35;;
40588;SDS011;26297;49.450;6.640;2023-04-24T21:37:29;2.72;;;2.03;;
40588;SDS011;26297;49.450;6.640;2023-04-24T21:40:59;2.92;;;1.83;;
40588;SDS011;26297;49.450;6.640;2023-04-24T21:44:31;2.03;;;1.92;;
40588;SDS011;26297;49.450;6.640;2023-04-24T21:47:34;2.67;;;2.00;;
40588;SDS011;26297;49.450;6.640;2023-04-24T21:50:44;2.20;;;1.90;;
40588;SDS011;26297;49.450;6.640;2023-04-24T21:54:09;2.90;;;2.38;;
40588;SDS011;26297;49.450;6.640;2023-04-24T22:05:47;3.53;;;2.63;;
40588;SDS011;26297;49.450;6.640;2023-04-24T22:08:51;2.97;;;2.40;;
40588;SDS011;26297;49.450;6.640;2023-04-24T22:12:04;3.13;;;2.65;;
40588;SDS011;26297;49.450;6.640;2023-04-24T22:15:27;3.22;;;2.80;;
40588;SDS011;26297;49.450;6.640;2023-04-24T22:18:57;2.35;;;2.15;;
40588;SDS011;26297;49.450;6.640;2023-04-24T22:22:47;3.20;;;2.70;;
40588;SDS011;26297;49.450;6.640;2023-04-24T22:26:34;3.15;;;2.70;;
40588;SDS011;26297;49.450;6.640;2023-04-24T22:29:48;2.53;;;2.33;;
40588;SDS011;26297;49.450;6.640;2023-04-24T22:33:17;3.17;;;2.88;;
40588;SDS011;26297;49.450;6.640;2023-04-24T22:36:56;2.80;;;2.58;;
40588;SDS011;26297;49.450;6.640;2023-04-24T23:31:10;3.97;;;2.55;;
40588;SDS011;26297;49.450;6.640;2023-04-24T23:34:39;3.90;;;2.85;;
40588;SDS011;26297;49.450;6.640;2023-04-24T23:38:23;3.25;;;2.58;;
40588;SDS011;26297;49.450;6.640;2023-04-24T23:42:01;2.80;;;2.60;;
40588;SDS011;26297;49.450;6.640;2023-04-24T23:48:57;3.42;;;2.83;;
40588;SDS011;26297;49.450;6.640;2023-04-24T23:53:12;3.95;;;2.92;;
